createdAt,value
2017-07-03T00:00:13.197Z,14.50
2017-07-03T00:02:39.514Z,14.50
2017-07-03T00:05:06.044Z,14.40
2017-07-03T00:07:32.619Z,14.50
2017-07-03T00:09:59.901Z,14.30
2017-07-03T00:12:26.266Z,14.30
2017-07-03T00:14:52.900Z,14.20
2017-07-03T00:17:19.229Z,14.20
2017-07-03T00:19:45.546Z,14.20
2017-07-03T00:22:11.849Z,14.20
2017-07-03T00:24:38.920Z,14.00
2017-07-03T00:27:05.260Z,14.00
2017-07-03T00:29:31.592Z,13.90
2017-07-03T00:31:58.128Z,13.90
2017-07-03T00:34:24.654Z,13.90
2017-07-03T00:36:51.267Z,13.90
2017-07-03T00:39:17.796Z,13.80
2017-07-03T00:41:44.393Z,13.80
2017-07-03T00:44:10.935Z,13.70
2017-07-03T00:46:37.936Z,13.70
2017-07-03T00:49:04.492Z,13.60
2017-07-03T00:51:31.039Z,13.50
2017-07-03T00:53:57.607Z,13.60
2017-07-03T00:56:31.360Z,13.50
2017-07-03T00:58:57.668Z,13.50
2017-07-03T01:01:23.979Z,13.50
2017-07-03T01:03:50.304Z,13.40
2017-07-03T01:06:16.622Z,13.40
2017-07-03T01:08:43.681Z,13.30
2017-07-03T01:11:10.880Z,13.30
2017-07-03T01:13:37.206Z,13.20
2017-07-03T01:16:03.521Z,13.30
2017-07-03T01:18:29.824Z,13.00
2017-07-03T01:20:56.128Z,13.10
2017-07-03T01:23:22.457Z,13.10
2017-07-03T01:25:48.800Z,13.00
2017-07-03T01:28:15.872Z,12.90
2017-07-03T01:30:42.206Z,12.90
2017-07-03T01:33:08.541Z,13.00
2017-07-03T01:35:34.877Z,12.90
2017-07-03T01:38:01.198Z,12.90
2017-07-03T01:40:27.548Z,12.90
2017-07-03T01:42:53.898Z,12.90
2017-07-03T01:45:20.228Z,12.80
2017-07-03T01:47:46.559Z,12.70
2017-07-03T01:50:13.007Z,12.50
2017-07-03T01:52:39.357Z,12.70
2017-07-03T01:55:05.729Z,12.70
2017-07-03T01:57:32.058Z,12.70
2017-07-03T01:59:58.383Z,12.60
2017-07-03T02:02:24.720Z,12.60
2017-07-03T02:04:51.106Z,12.50
2017-07-03T02:07:18.185Z,12.50
2017-07-03T02:09:44.528Z,12.50
2017-07-03T02:12:10.854Z,12.50
2017-07-03T02:14:37.176Z,12.50
2017-07-03T02:17:03.790Z,12.50
2017-07-03T02:19:30.120Z,12.30
2017-07-03T02:21:56.693Z,12.40
2017-07-03T02:24:23.248Z,12.40
2017-07-03T02:26:51.580Z,12.40
2017-07-03T02:29:17.998Z,12.40
2017-07-03T02:31:44.366Z,12.40
2017-07-03T02:34:11.444Z,12.30
2017-07-03T02:36:38.074Z,12.30
2017-07-03T02:39:04.379Z,12.40
2017-07-03T02:41:31.444Z,12.30
2017-07-03T02:43:57.806Z,12.30
2017-07-03T02:46:24.125Z,12.30
2017-07-03T02:48:50.445Z,12.20
2017-07-03T02:51:16.777Z,12.20
2017-07-03T02:53:43.104Z,12.10
2017-07-03T02:56:09.419Z,12.10
2017-07-03T02:58:35.727Z,12.00
2017-07-03T03:01:02.780Z,12.00
2017-07-03T03:03:29.832Z,12.00
2017-07-03T03:05:56.185Z,12.00
2017-07-03T03:08:22.514Z,12.00
2017-07-03T03:10:48.839Z,12.00
2017-07-03T03:13:15.147Z,11.80
2017-07-03T03:15:41.696Z,11.90
2017-07-03T03:18:08.260Z,11.90
2017-07-03T03:20:34.820Z,11.90
2017-07-03T03:23:01.372Z,11.40
2017-07-03T03:25:27.929Z,11.90
2017-07-03T03:27:54.520Z,11.90
2017-07-03T03:30:21.065Z,11.70
2017-07-03T03:32:47.676Z,11.80
2017-07-03T03:35:14.245Z,11.80
2017-07-03T03:37:40.800Z,11.70
2017-07-03T03:40:08.100Z,11.70
2017-07-03T03:42:34.708Z,11.50
2017-07-03T03:45:01.303Z,11.70
2017-07-03T03:47:27.803Z,11.70
2017-07-03T03:49:54.374Z,11.70
2017-07-03T03:52:20.973Z,11.80
2017-07-03T03:54:47.565Z,11.80
2017-07-03T03:57:14.230Z,11.50
2017-07-03T03:59:40.772Z,11.70
2017-07-03T04:02:07.353Z,11.70
2017-07-03T04:04:33.889Z,11.80
2017-07-03T04:07:00.456Z,11.60
2017-07-03T04:09:26.991Z,11.90
2017-07-03T04:11:54.258Z,11.90
2017-07-03T04:14:20.774Z,11.90
2017-07-03T04:16:47.223Z,11.90
2017-07-03T04:19:13.789Z,11.90
2017-07-03T04:21:41.122Z,12.00
2017-07-03T04:24:07.671Z,12.00
2017-07-03T04:26:34.387Z,12.10
2017-07-03T04:29:00.936Z,12.10
2017-07-03T04:31:27.505Z,12.20
2017-07-03T04:33:54.025Z,12.20
2017-07-03T04:36:20.568Z,12.30
2017-07-03T04:38:47.116Z,12.40
2017-07-03T04:41:13.652Z,12.40
2017-07-03T04:43:41.032Z,12.50
2017-07-03T04:46:07.601Z,12.50
2017-07-03T04:48:34.194Z,12.60
2017-07-03T04:51:00.763Z,12.70
2017-07-03T04:56:00.364Z,12.80
2017-07-03T04:58:26.700Z,13.00
2017-07-03T05:00:53.017Z,13.10
2017-07-03T05:03:19.325Z,13.30
2017-07-03T05:05:45.645Z,13.20
2017-07-03T05:08:11.954Z,13.10
2017-07-03T05:10:38.302Z,13.50
2017-07-03T05:13:04.616Z,13.50
2017-07-03T05:15:30.932Z,13.60
2017-07-03T05:17:57.245Z,13.80
2017-07-03T05:20:24.320Z,14.00
2017-07-03T05:22:50.624Z,13.80
2017-07-03T05:25:16.959Z,13.90
2017-07-03T05:27:43.332Z,13.90
2017-07-03T05:30:09.665Z,13.90
2017-07-03T05:32:35.989Z,14.10
2017-07-03T05:35:02.333Z,14.30
2017-07-03T05:37:28.712Z,14.30
2017-07-03T05:39:55.771Z,14.50
2017-07-03T05:42:22.132Z,14.40
2017-07-03T05:44:48.459Z,14.60
2017-07-03T05:47:15.757Z,14.70
2017-07-03T05:49:42.078Z,14.60
2017-07-03T05:52:08.625Z,14.90
2017-07-03T05:54:35.184Z,15.10
2017-07-03T05:57:01.727Z,15.10
2017-07-03T05:59:28.315Z,15.10
2017-07-03T06:01:54.909Z,15.10
2017-07-03T06:04:27.189Z,15.20
2017-07-03T06:06:53.536Z,15.40
2017-07-03T06:09:19.871Z,15.30
2017-07-03T06:11:46.209Z,15.40
2017-07-03T06:14:13.313Z,15.50
2017-07-03T06:16:39.660Z,15.50
2017-07-03T06:19:05.984Z,15.70
2017-07-03T06:21:32.312Z,15.80
2017-07-03T06:23:58.635Z,15.90
2017-07-03T06:26:24.953Z,15.80
2017-07-03T06:28:51.286Z,15.90
2017-07-03T06:31:17.616Z,15.70
2017-07-03T06:33:43.926Z,15.70
2017-07-03T06:36:11.356Z,15.70
2017-07-03T06:38:37.716Z,15.80
2017-07-03T06:41:04.037Z,15.80
2017-07-03T06:43:30.352Z,16.00
2017-07-03T06:45:56.744Z,16.10
2017-07-03T06:48:23.093Z,16.40
2017-07-03T06:50:50.444Z,16.70
2017-07-03T06:53:16.754Z,16.60
2017-07-03T06:55:43.075Z,16.70
2017-07-03T06:58:09.416Z,16.70
2017-07-03T07:00:35.724Z,16.70
2017-07-03T07:03:02.260Z,16.80
2017-07-03T07:05:28.820Z,16.70
2017-07-03T07:07:55.166Z,16.70
2017-07-03T07:10:21.579Z,16.80
2017-07-03T07:12:48.111Z,17.10
2017-07-03T07:15:14.689Z,17.20
2017-07-03T07:17:41.213Z,17.30
2017-07-03T07:20:07.768Z,17.40
2017-07-03T07:22:34.305Z,17.50
2017-07-03T07:25:00.878Z,17.30
2017-07-03T07:27:27.413Z,17.40
2017-07-03T07:29:53.967Z,17.70
2017-07-03T07:32:20.528Z,17.80
2017-07-03T07:34:47.783Z,17.90
2017-07-03T07:37:14.323Z,17.80
2017-07-03T07:39:42.430Z,17.80
2017-07-03T07:42:08.735Z,17.80
2017-07-03T07:44:35.791Z,18.00
2017-07-03T07:47:02.114Z,17.90
2017-07-03T07:49:28.664Z,18.00
2017-07-03T07:51:55.218Z,17.90
2017-07-03T07:54:21.773Z,18.40
2017-07-03T07:56:48.223Z,18.50
2017-07-03T07:59:14.776Z,18.60
2017-07-03T08:01:42.128Z,18.50
2017-07-03T08:04:08.474Z,18.50
2017-07-03T08:06:34.819Z,18.60
2017-07-03T08:09:01.614Z,18.90
2017-07-03T08:11:28.147Z,19.00
2017-07-03T08:13:54.789Z,19.40
2017-07-03T08:16:21.465Z,20.10
2017-07-03T08:18:47.885Z,21.00
2017-07-03T08:21:14.437Z,22.50
2017-07-03T08:23:41.014Z,24.10
2017-07-03T08:26:07.561Z,24.80
2017-07-03T08:28:34.077Z,26.10
2017-07-03T08:31:00.674Z,27.60
2017-07-03T08:33:27.228Z,28.50
2017-07-03T08:35:53.757Z,29.20
2017-07-03T08:38:20.195Z,29.50
2017-07-03T08:40:46.743Z,30.00
2017-07-03T08:43:13.967Z,30.10
2017-07-03T08:45:40.280Z,30.70
2017-07-03T08:48:06.811Z,31.10
2017-07-03T08:50:33.371Z,31.00
2017-07-03T08:52:59.886Z,30.80
2017-07-03T08:55:26.361Z,31.10
2017-07-03T08:57:52.864Z,31.20
2017-07-03T09:00:20.133Z,29.50
2017-07-03T09:02:46.655Z,29.50
2017-07-03T09:05:13.260Z,28.00
2017-07-03T09:07:39.881Z,26.10
2017-07-03T09:10:06.404Z,24.90
2017-07-03T09:12:32.855Z,24.20
2017-07-03T09:15:00.142Z,23.40
2017-07-03T09:17:26.484Z,23.30
2017-07-03T09:19:52.801Z,23.00
2017-07-03T09:22:19.401Z,22.80
2017-07-03T09:24:46.686Z,22.40
2017-07-03T09:27:13.109Z,22.40
2017-07-03T09:29:39.424Z,22.20
2017-07-03T09:32:05.737Z,21.90
2017-07-03T09:34:32.060Z,22.00
2017-07-03T09:36:58.600Z,22.10
2017-07-03T09:39:25.117Z,22.00
2017-07-03T09:41:51.689Z,21.90
2017-07-03T09:44:18.201Z,21.90
2017-07-03T09:46:44.510Z,21.80
2017-07-03T09:49:11.059Z,21.90
2017-07-03T09:51:44.467Z,21.70
2017-07-03T09:54:10.785Z,21.70
2017-07-03T09:56:37.103Z,21.50
2017-07-03T09:59:03.441Z,21.50
2017-07-03T10:01:29.774Z,21.60
2017-07-03T10:03:56.218Z,22.10
2017-07-03T10:06:23.312Z,22.40
2017-07-03T10:08:49.627Z,22.30
2017-07-03T10:11:15.960Z,22.40
2017-07-03T10:13:42.283Z,22.40
2017-07-03T10:16:08.584Z,22.30
2017-07-03T10:18:34.924Z,22.20
2017-07-03T10:21:01.988Z,22.30
2017-07-03T10:23:29.056Z,22.40
2017-07-03T10:25:55.372Z,22.40
2017-07-03T10:28:21.709Z,22.50
2017-07-03T10:30:48.747Z,22.80
2017-07-03T10:33:15.097Z,22.90
2017-07-03T10:35:41.413Z,22.90
2017-07-03T10:38:07.747Z,22.90
2017-07-03T10:40:34.055Z,22.80
2017-07-03T10:43:01.108Z,22.80
2017-07-03T10:45:28.150Z,22.50
2017-07-03T10:47:54.501Z,22.50
2017-07-03T10:50:20.916Z,22.60
2017-07-03T10:52:47.381Z,22.60
2017-07-03T10:55:13.855Z,22.20
2017-07-03T10:57:47.093Z,22.60
2017-07-03T11:00:13.583Z,22.60
2017-07-03T11:02:39.925Z,22.50
2017-07-03T11:05:06.237Z,22.40
2017-07-03T11:07:32.577Z,22.60
2017-07-03T11:09:59.628Z,22.70
2017-07-03T11:12:25.938Z,22.60
2017-07-03T11:14:52.260Z,22.70
2017-07-03T11:17:18.575Z,22.80
2017-07-03T11:19:44.888Z,22.60
2017-07-03T11:22:11.204Z,22.60
2017-07-03T11:24:37.539Z,22.60
2017-07-03T11:27:03.902Z,22.70
2017-07-03T11:29:30.243Z,22.80
2017-07-03T11:31:56.559Z,22.90
2017-07-03T11:34:22.881Z,22.90
2017-07-03T11:36:49.268Z,22.90
2017-07-03T11:39:15.585Z,22.90
2017-07-03T11:41:42.634Z,23.00
2017-07-03T11:44:08.983Z,23.00
2017-07-03T11:46:35.296Z,23.10
2017-07-03T11:49:01.584Z,22.90
2017-07-03T11:51:27.910Z,23.00
2017-07-03T11:53:54.213Z,23.00
2017-07-03T11:56:20.532Z,23.00
2017-07-03T11:58:47.592Z,23.30
2017-07-03T12:01:14.631Z,23.20
2017-07-03T12:03:40.948Z,23.20
2017-07-03T12:06:07.260Z,23.30
2017-07-03T12:08:33.571Z,23.40
2017-07-03T12:10:59.878Z,23.40
2017-07-03T12:13:26.198Z,23.40
2017-07-03T12:15:52.481Z,23.40
2017-07-03T12:18:19.554Z,23.40
2017-07-03T12:20:46.600Z,23.30
2017-07-03T12:23:12.932Z,23.30
2017-07-03T12:25:39.312Z,23.30
2017-07-03T12:28:05.621Z,23.40
2017-07-03T12:30:32.145Z,23.60
2017-07-03T12:32:58.682Z,23.40
2017-07-03T12:35:25.235Z,23.70
2017-07-03T12:37:51.775Z,23.70
2017-07-03T12:40:18.312Z,23.70
2017-07-03T12:42:44.835Z,23.70
2017-07-03T12:45:11.367Z,23.80
2017-07-03T12:47:37.919Z,23.60
2017-07-03T12:50:04.441Z,23.50
2017-07-03T12:52:30.971Z,23.60
2017-07-03T12:54:57.577Z,23.60
2017-07-03T12:57:24.109Z,23.40
2017-07-03T12:59:50.653Z,23.80
2017-07-03T13:02:17.240Z,24.00
2017-07-03T13:04:43.809Z,24.10
2017-07-03T13:07:10.321Z,24.10
2017-07-03T13:09:36.881Z,23.90
2017-07-03T13:12:03.391Z,23.80
2017-07-03T13:14:29.968Z,24.00
2017-07-03T13:16:56.505Z,23.80
2017-07-03T13:19:23.061Z,23.90
2017-07-03T13:21:49.599Z,24.10
2017-07-03T13:24:16.192Z,24.00
2017-07-03T13:26:43.465Z,23.90
2017-07-03T13:29:10.019Z,23.90
2017-07-03T13:31:36.474Z,23.50
2017-07-03T13:34:03.027Z,23.60
2017-07-03T13:36:30.304Z,23.50
2017-07-03T13:38:56.827Z,23.50
2017-07-03T13:41:24.104Z,23.50
2017-07-03T13:43:50.665Z,23.50
2017-07-03T13:46:17.216Z,23.50
2017-07-03T13:48:43.852Z,23.60
2017-07-03T13:51:10.373Z,23.60
2017-07-03T13:53:36.950Z,23.90
2017-07-03T13:56:03.509Z,23.90
2017-07-03T13:58:30.102Z,23.80
2017-07-03T14:00:56.773Z,23.70
2017-07-03T14:03:23.284Z,23.60
2017-07-03T14:05:49.862Z,23.70
2017-07-03T14:08:16.413Z,23.70
2017-07-03T14:10:42.966Z,23.50
2017-07-03T14:13:09.485Z,23.60
2017-07-03T14:15:36.052Z,23.80
2017-07-03T14:18:02.566Z,23.70
2017-07-03T14:20:29.144Z,23.80
2017-07-03T14:22:56.428Z,23.60
2017-07-03T14:25:23.002Z,23.60
2017-07-03T14:27:49.535Z,23.60
2017-07-03T14:30:16.114Z,23.70
2017-07-03T14:32:57.574Z,23.60
2017-07-03T14:35:23.878Z,23.60
2017-07-03T14:37:50.180Z,23.60
2017-07-03T14:40:16.497Z,23.60
2017-07-03T14:42:42.804Z,23.50
2017-07-03T14:45:09.092Z,23.60
2017-07-03T14:47:35.411Z,23.70
2017-07-03T14:50:01.871Z,23.60
2017-07-03T14:52:28.172Z,23.60
2017-07-03T14:54:54.485Z,23.60
2017-07-03T14:57:20.862Z,23.50
2017-07-03T14:59:47.148Z,23.60
2017-07-03T15:02:13.494Z,23.50
2017-07-03T15:04:39.804Z,23.50
2017-07-03T15:07:06.108Z,23.40
2017-07-03T15:09:32.447Z,23.40
2017-07-03T15:11:58.756Z,23.30
2017-07-03T15:14:25.849Z,23.30
2017-07-03T15:16:52.174Z,23.20
2017-07-03T15:19:18.517Z,23.10
2017-07-03T15:21:44.834Z,23.20
2017-07-03T15:24:11.159Z,23.20
2017-07-03T15:26:37.473Z,23.30
2017-07-03T15:29:12.321Z,23.50
2017-07-03T15:31:38.634Z,23.40
2017-07-03T15:34:04.956Z,23.40
2017-07-03T15:36:32.007Z,23.40
2017-07-03T15:38:58.296Z,23.40
2017-07-03T15:41:24.673Z,23.30
2017-07-03T15:43:51.072Z,23.30
2017-07-03T15:46:17.384Z,23.40
2017-07-03T15:48:43.688Z,23.40
2017-07-03T15:51:11.848Z,23.30
2017-07-03T15:53:39.143Z,23.20
2017-07-03T15:56:05.499Z,23.00
2017-07-03T15:58:31.963Z,23.10
2017-07-03T16:00:58.336Z,23.00
2017-07-03T16:03:24.649Z,23.00
2017-07-03T16:05:50.991Z,23.00
2017-07-03T16:08:17.303Z,23.00
2017-07-03T16:10:43.628Z,23.10
2017-07-03T16:13:09.951Z,23.00
2017-07-03T16:15:36.256Z,23.00
2017-07-03T16:18:03.315Z,23.00
2017-07-03T16:20:29.608Z,23.00
2017-07-03T16:22:56.663Z,22.90
2017-07-03T16:25:22.993Z,22.90
2017-07-03T16:27:49.297Z,22.90
2017-07-03T16:30:16.408Z,22.80
2017-07-03T16:32:42.725Z,22.80
2017-07-03T16:35:09.040Z,22.80
2017-07-03T16:37:35.347Z,22.80
2017-07-03T16:40:02.448Z,23.10
2017-07-03T16:42:28.760Z,23.00
2017-07-03T16:44:55.146Z,23.10
2017-07-03T16:47:22.469Z,23.30
2017-07-03T16:49:49.434Z,23.10
2017-07-03T16:52:15.727Z,23.20
2017-07-03T16:54:42.032Z,23.00
2017-07-03T16:57:08.337Z,23.00
2017-07-03T16:59:35.384Z,23.10
2017-07-03T17:02:04.212Z,23.10
2017-07-03T17:04:30.539Z,23.00
2017-07-03T17:09:29.959Z,22.90
2017-07-03T17:11:56.277Z,22.90
2017-07-03T17:14:22.610Z,22.90
2017-07-03T17:16:48.909Z,23.00
2017-07-03T17:19:16.006Z,22.80
2017-07-03T17:21:42.324Z,22.80
2017-07-03T17:24:08.707Z,22.80
2017-07-03T17:26:35.063Z,22.80
2017-07-03T17:29:01.366Z,22.60
2017-07-03T17:31:27.672Z,22.60
2017-07-03T17:33:53.968Z,22.50
2017-07-03T17:36:20.273Z,22.60
2017-07-03T17:38:47.309Z,22.70
2017-07-03T17:41:14.481Z,22.70
2017-07-03T17:43:40.783Z,22.70
2017-07-03T17:46:07.833Z,22.50
2017-07-03T17:48:34.888Z,22.40
2017-07-03T17:51:01.210Z,22.40
2017-07-03T17:53:27.526Z,22.30
2017-07-03T17:55:53.848Z,22.30
2017-07-03T17:58:20.153Z,22.30
2017-07-03T18:00:46.461Z,22.30
2017-07-03T18:03:12.785Z,22.20
2017-07-03T18:05:39.101Z,21.90
2017-07-03T18:08:06.159Z,22.00
2017-07-03T18:10:32.452Z,22.00
2017-07-03T18:12:58.774Z,22.10
2017-07-03T18:15:25.096Z,22.00
2017-07-03T18:17:51.409Z,21.90
2017-07-03T18:20:17.720Z,21.80
2017-07-03T18:22:44.028Z,22.00
2017-07-03T18:25:11.082Z,22.00
2017-07-03T18:27:37.415Z,22.00
2017-07-03T18:30:03.732Z,22.10
2017-07-03T18:32:30.083Z,22.00
2017-07-03T18:34:56.401Z,22.00
2017-07-03T18:37:22.743Z,22.10
2017-07-03T18:39:49.075Z,22.00
2017-07-03T18:42:15.458Z,21.90
2017-07-03T18:44:41.781Z,21.90
2017-07-03T18:47:08.115Z,22.00
2017-07-03T18:49:34.482Z,21.80
2017-07-03T18:52:00.862Z,21.90
2017-07-03T18:54:27.180Z,22.00
2017-07-03T18:56:53.611Z,21.90
2017-07-03T18:59:19.955Z,21.70
2017-07-03T19:01:46.300Z,21.70
2017-07-03T19:04:12.625Z,21.60
2017-07-03T19:06:39.020Z,21.80
2017-07-03T19:09:05.333Z,21.80
2017-07-03T19:11:31.701Z,21.90
2017-07-03T19:13:58.053Z,21.90
2017-07-03T19:16:24.371Z,21.80
2017-07-03T19:18:50.692Z,21.80
2017-07-03T19:21:17.315Z,21.80
2017-07-03T19:23:43.837Z,21.50
2017-07-03T19:26:10.352Z,21.70
2017-07-03T19:28:36.904Z,21.80
2017-07-03T19:31:03.493Z,21.60
2017-07-03T19:33:30.012Z,21.60
2017-07-03T19:35:57.291Z,21.60
2017-07-03T19:38:23.845Z,21.60
2017-07-03T19:40:50.449Z,21.60
2017-07-03T19:43:17.069Z,21.50
2017-07-03T19:45:44.416Z,21.60
2017-07-03T19:48:10.989Z,21.30
2017-07-03T19:50:37.591Z,21.50
2017-07-03T19:53:04.128Z,21.50
2017-07-03T19:55:30.685Z,21.50
2017-07-03T19:57:57.233Z,21.00
2017-07-03T20:00:23.775Z,21.30
2017-07-03T20:02:50.330Z,21.10
2017-07-03T20:05:16.906Z,21.00
2017-07-03T20:07:43.342Z,21.10
2017-07-03T20:10:09.884Z,21.00
2017-07-03T20:12:36.402Z,20.90
2017-07-03T20:15:03.420Z,20.60
2017-07-03T20:17:29.958Z,20.60
2017-07-03T20:19:56.483Z,20.60
2017-07-03T20:22:23.037Z,20.60
2017-07-03T20:24:49.547Z,20.40
2017-07-03T20:27:16.105Z,20.20
2017-07-03T20:29:42.649Z,20.20
2017-07-03T20:32:09.189Z,20.10
2017-07-03T20:34:35.841Z,20.10
2017-07-03T20:37:02.452Z,20.00
2017-07-03T20:39:29.040Z,20.00
2017-07-03T20:41:55.593Z,20.30
2017-07-03T20:44:22.122Z,20.10
2017-07-03T20:46:48.704Z,20.10
2017-07-03T20:49:15.274Z,20.10
2017-07-03T20:51:41.788Z,19.90
2017-07-03T20:54:09.064Z,20.10
2017-07-03T20:56:35.673Z,19.80
2017-07-03T20:59:02.222Z,20.10
2017-07-03T21:01:28.900Z,20.30
2017-07-03T21:03:56.100Z,20.30
2017-07-03T21:06:22.683Z,20.10
2017-07-03T21:08:49.235Z,20.20
2017-07-03T21:11:15.778Z,19.90
2017-07-03T21:13:42.338Z,20.20
2017-07-03T21:16:08.865Z,20.30
2017-07-03T21:18:35.440Z,20.20
2017-07-03T21:21:01.998Z,20.20
2017-07-03T21:23:28.535Z,20.30
2017-07-03T21:25:55.117Z,20.20
2017-07-03T21:28:21.655Z,20.40
2017-07-03T21:30:48.210Z,20.50
2017-07-03T21:33:14.761Z,20.40
2017-07-03T21:35:41.304Z,20.40
2017-07-03T21:38:07.865Z,20.30
2017-07-03T21:40:35.216Z,20.30
2017-07-03T21:43:01.699Z,20.30
2017-07-03T21:45:28.309Z,20.30
2017-07-03T21:47:55.011Z,20.30
2017-07-03T21:50:21.599Z,20.30
2017-07-03T21:52:48.152Z,20.30
2017-07-03T21:55:14.673Z,20.30
2017-07-03T21:57:41.180Z,20.30
2017-07-03T22:00:07.740Z,20.30
2017-07-03T22:02:34.268Z,20.30
2017-07-03T22:05:00.881Z,20.40
2017-07-03T22:07:27.436Z,20.20
2017-07-03T22:09:54.021Z,20.40
2017-07-03T22:12:20.821Z,20.20
2017-07-03T22:14:47.382Z,20.10
2017-07-03T22:17:13.929Z,20.10
2017-07-03T22:19:40.411Z,19.90
2017-07-03T22:22:07.212Z,20.00
2017-07-03T22:24:33.797Z,20.10
2017-07-03T22:27:00.381Z,20.10
2017-07-03T22:29:26.960Z,20.30
2017-07-03T22:31:53.491Z,20.20
2017-07-03T22:34:20.765Z,20.10
2017-07-03T22:36:48.368Z,20.00
2017-07-03T22:39:15.601Z,20.00
2017-07-03T22:41:42.172Z,19.90
2017-07-03T22:44:09.129Z,19.80
2017-07-03T22:46:35.572Z,19.70
2017-07-03T22:49:02.360Z,19.60
2017-07-03T22:51:29.013Z,19.60
2017-07-03T22:53:55.665Z,19.70
2017-07-03T22:56:22.253Z,19.70
2017-07-03T22:58:48.796Z,19.60
2017-07-03T23:01:15.373Z,19.70
2017-07-03T23:03:41.945Z,19.80
2017-07-03T23:06:08.512Z,19.40
2017-07-03T23:08:35.050Z,19.70
2017-07-03T23:11:01.588Z,19.80
2017-07-03T23:13:28.522Z,19.80
2017-07-03T23:15:55.069Z,19.70
2017-07-03T23:18:21.538Z,19.80
2017-07-03T23:20:48.104Z,19.70
2017-07-03T23:23:14.740Z,19.70
2017-07-03T23:25:41.281Z,19.70
2017-07-03T23:28:07.845Z,19.70
2017-07-03T23:30:34.396Z,19.60
2017-07-03T23:33:02.212Z,19.40
2017-07-03T23:35:29.492Z,19.50
2017-07-03T23:37:56.004Z,19.50
2017-07-03T23:40:22.579Z,19.50
2017-07-03T23:42:49.760Z,19.40
2017-07-03T23:45:17.065Z,19.20
2017-07-03T23:47:43.626Z,19.20
2017-07-03T23:50:10.167Z,19.10
2017-07-03T23:52:36.717Z,19.30
2017-07-03T23:55:03.270Z,19.20
2017-07-03T23:57:29.864Z,19.20
2017-07-03T23:59:56.425Z,19.30
